»·PEaware :: SWA202 KLAS-KSLC

SWA202 :: KLAS-KSLC

FLIGHT INFORMATION

Flight Status: Arrived
Operator:
Southwest Airlines
More flights by this operator :: More flights under this callsign
Pilot: Anonymous 14085 (14085)
Aircraft: BOEING 737-300
(B733)
More flights by this aircraft type
Origin: KLAS McCarran Intl
United States
Destination: KSLC Salt Lake City Intl
United States
More flights between these airports :: More routes between these airports
Route: +TRALR7 MLF JAMMN4
File this flight plan on PilotEdge
Remarks: PBN / A1B3B4B5D3D4 DOF / 170531 REG / N372SB EET / KZLC0023 OPR / SWA RMK / TCAS SIMBRIEF
Altitude:
(Current/Filed)
35,000ft
Speed:
(Current/Filed)
426kts
Departed: 31-May-17 10:54 AM
Arrived: 31-May-17 11:55 AM
Distance/Time
Traveled:
319nm/1:01
Distance/Time
To Go:
Arrived

Flight Plot

Page will automatically refresh every two minutes.

Flight plan parsing failed; only flown route is shown


Map Options




Map Legend


Flown Route
Filed Route
Departure Airport
Arrival Airport
Navaid (VOR, NDB)
Fix

Horizontal Profiles

Position Reports

Time Latitude Longitude Heading Altitude Ground
Speed
31-May-17 10:30 36.080933 -115.146016 254 2118ft 0kts
31-May-17 10:31 36.080933 -115.146016 254 2118ft 0kts
31-May-17 10:32 36.080933 -115.146016 254 2118ft 0kts
31-May-17 10:33 36.080933 -115.146016 254 2118ft 0kts
31-May-17 10:34 36.080933 -115.146016 254 2118ft 0kts
31-May-17 10:35 36.080933 -115.146016 254 2118ft 0kts
31-May-17 10:36 36.080933 -115.146016 254 2118ft 0kts
31-May-17 10:37 36.080933 -115.146016 254 2118ft 0kts
31-May-17 10:38 36.080933 -115.146016 254 2118ft 0kts
31-May-17 10:39 36.080933 -115.146016 254 2118ft 0kts
31-May-17 10:40 36.080933 -115.146016 254 2118ft 0kts
31-May-17 10:41 36.080933 -115.146016 254 2118ft 0kts
31-May-17 10:42 36.080933 -115.146016 254 2118ft 0kts
31-May-17 10:43 36.080933 -115.146016 254 2118ft 0kts
31-May-17 10:44 36.080933 -115.146016 254 2118ft 0kts
31-May-17 10:45 36.080933 -115.146016 254 2118ft 0kts
31-May-17 10:46 36.080933 -115.146016 254 2118ft 0kts
31-May-17 10:47 36.081015 -115.145651 254 2118ft 0kts
31-May-17 10:48 36.081110 -115.145243 253 2118ft 0kts
31-May-17 10:49 36.081110 -115.145243 253 2118ft 0kts
31-May-17 10:50 36.080584 -115.144964 158 2118ft 5kts
31-May-17 10:51 36.079345 -115.144441 180 2118ft 16kts
31-May-17 10:52 36.077835 -115.148053 273 2118ft 18kts
31-May-17 10:53 36.078031 -115.155774 269 2118ft 25kts
31-May-17 10:54 36.078008 -115.165577 270 2118ft 31kts
31-May-17 10:55 36.076524 -115.170974 169 2118ft 9kts
31-May-17 10:56 36.076429 -115.152051 90 2415ft 167kts
31-May-17 10:57 36.077736 -115.084898 84 5839ft 232kts
31-May-17 10:58 36.075173 -114.989125 88 9214ft 303kts
31-May-17 10:59 36.087799 -114.881794 77 12822ft 344kts
31-May-17 11:00 36.108007 -114.763260 78 16613ft 364kts
31-May-17 11:01 36.129088 -114.637878 78 18966ft 378kts
31-May-17 11:02 36.150642 -114.508795 78 20875ft 390kts
31-May-17 11:03 36.172831 -114.374897 78 22965ft 404kts
31-May-17 11:04 36.195986 -114.238414 71 25730ft 419kts
31-May-17 11:05 36.247432 -114.106647 64 28211ft 435kts
31-May-17 11:06 36.300248 -113.970894 64 31008ft 436kts
31-May-17 11:07 36.352055 -113.836994 64 33757ft 430kts
31-May-17 11:08 36.403573 -113.703270 64 35026ft 433kts
31-May-17 11:09 36.476486 -113.586193 18 34991ft 448kts
31-May-17 11:10 36.598644 -113.566246 14 35012ft 449kts
31-May-17 11:11 36.719377 -113.531161 13 35000ft 448kts
31-May-17 11:12 36.840050 -113.495006 13 35001ft 449kts
31-May-17 11:13 36.961435 -113.458472 13 35001ft 449kts
31-May-17 11:14 37.082413 -113.421940 13 35001ft 449kts
31-May-17 11:15 37.200593 -113.386225 13 35003ft 450kts
31-May-17 11:16 37.320961 -113.349645 13 35001ft 449kts
31-May-17 11:17 37.440544 -113.312057 14 35002ft 449kts
31-May-17 11:18 37.561059 -113.273294 14 35001ft 449kts
31-May-17 11:19 37.679636 -113.235067 14 33646ft 432kts
31-May-17 11:20 37.793918 -113.197982 14 31987ft 435kts
31-May-17 11:21 37.909129 -113.160611 14 30961ft 438kts
31-May-17 11:22 38.024131 -113.117659 34 30989ft 439kts
31-May-17 11:23 38.128331 -113.060525 359 30977ft 440kts
31-May-17 11:24 38.247240 -113.041207 10 31002ft 440kts
31-May-17 11:25 38.364504 -113.006651 16 31000ft 440kts
31-May-17 11:26 38.476802 -112.952482 22 31001ft 440kts
31-May-17 11:27 38.588124 -112.893009 22 31000ft 439kts
31-May-17 11:28 38.698448 -112.833718 22 31001ft 440kts
31-May-17 11:29 38.806779 -112.775300 22 31001ft 440kts
31-May-17 11:30 38.909033 -112.719980 22 31000ft 440kts
31-May-17 11:31 39.017965 -112.660856 22 31001ft 440kts
31-May-17 11:32 39.117617 -112.606874 21 30962ft 440kts
31-May-17 11:33 39.206207 -112.558903 22 30237ft 442kts
31-May-17 11:34 39.314228 -112.499165 19 28314ft 440kts
31-May-17 11:35 39.428648 -112.464045 11 26397ft 444kts
31-May-17 11:36 39.544595 -112.427595 13 24452ft 431kts
31-May-17 11:37 39.653139 -112.392354 13 22499ft 401kts
31-May-17 11:38 39.756427 -112.358625 13 20565ft 391kts
31-May-17 11:39 39.854332 -112.325780 14 18652ft 375kts
31-May-17 11:40 39.947110 -112.286110 22 17157ft 357kts
31-May-17 11:41 40.037515 -112.262835 9 17053ft 347kts
31-May-17 11:42 40.125057 -112.235988 14 16992ft 344kts
31-May-17 11:43 40.214717 -112.204793 15 17021ft 346kts
31-May-17 11:44 40.304299 -112.173615 14 16602ft 345kts
31-May-17 11:45 40.390840 -112.143437 14 15635ft 324kts
31-May-17 11:46 40.471985 -112.115069 14 14678ft 310kts
31-May-17 11:47 40.550722 -112.087475 14 13728ft 305kts
31-May-17 11:48 40.627241 -112.070337 351 12794ft 296kts
31-May-17 11:49 40.703617 -112.085714 351 11821ft 281kts
31-May-17 11:50 40.774761 -112.100144 351 11110ft 255kts
31-May-17 11:51 40.839749 -112.113314 351 9922ft 240kts
31-May-17 11:52 40.897684 -112.113459 42 8151ft 212kts
31-May-17 11:53 40.896026 -112.046342 108 6180ft 198kts
31-May-17 11:54 40.868735 -112.000093 142 5563ft 154kts
31-May-17 11:55 40.831552 -111.979273 175 4877ft 155kts
31-May-17 11:56 40.795723 -111.975565 174 4234ft 68kts
31-May-17 11:57 40.790867 -111.976079 203 4234ft 3kts
31-May-17 11:58 40.788874 -111.977620 259 4234ft 3kts
31-May-17 11:59 40.788841 -111.977831 258 4234ft 0kts
31-May-17 12:00 40.788841 -111.977831 258 4234ft 0kts
31-May-17 12:01 40.788841 -111.977831 258 4234ft 0kts
31-May-17 12:02 40.788841 -111.977831 258 4234ft 0kts

Navigation Log

Ident Type
Flight plan parsing failed, navigation log unavailable